createdAt,value
2023-01-04T00:01:40.184Z,101890.22
2023-01-04T00:04:10.446Z,101896.97
2023-01-04T00:06:41.057Z,101896.75
2023-01-04T00:09:11.265Z,101880.16
2023-01-04T00:11:41.804Z,101883.00
2023-01-04T00:14:17.231Z,101875.53
2023-01-04T00:16:48.035Z,101868.22
2023-01-04T00:19:18.338Z,101863.63
2023-01-04T00:21:48.918Z,101851.25
2023-01-04T00:24:19.689Z,101852.00
2023-01-04T00:26:50.306Z,101853.84
2023-01-04T00:29:23.127Z,101851.34
2023-01-04T00:31:53.837Z,101847.81
2023-01-04T00:34:24.153Z,101847.22
2023-01-04T00:36:54.700Z,101839.22
2023-01-04T00:39:25.778Z,101831.44
2023-01-04T00:42:05.188Z,101826.06
2023-01-04T00:44:38.380Z,101821.22
2023-01-04T00:47:08.966Z,101816.63
2023-01-04T00:49:39.232Z,101812.63
2023-01-04T00:52:09.857Z,101806.94
2023-01-04T00:54:40.169Z,101804.50
2023-01-04T00:57:10.683Z,101800.59
2023-01-04T00:59:43.503Z,101791.91
2023-01-04T01:02:14.284Z,101793.53
2023-01-04T01:04:45.038Z,101772.03
2023-01-04T01:07:15.615Z,101765.03
2023-01-04T01:09:45.522Z,101758.22
2023-01-04T01:12:15.820Z,101766.72
2023-01-04T01:14:48.356Z,101771.56
2023-01-04T01:17:18.750Z,101768.53
2023-01-04T01:19:48.655Z,101767.94
2023-01-04T01:22:18.920Z,101767.06
2023-01-04T01:24:48.932Z,101776.38
2023-01-04T01:27:19.164Z,101774.28
2023-01-04T01:29:51.850Z,101769.78
2023-01-04T01:32:22.103Z,101773.91
2023-01-04T01:34:51.996Z,101765.50
2023-01-04T01:37:22.210Z,101770.00
2023-01-04T01:39:52.160Z,101761.41
2023-01-04T01:42:23.446Z,101767.41
2023-01-04T01:45:11.201Z,101765.50
2023-01-04T01:47:46.183Z,101760.16
2023-01-04T01:50:27.532Z,101759.03
2023-01-04T01:53:01.275Z,101766.16
2023-01-04T01:55:33.754Z,101754.66
2023-01-04T01:58:05.360Z,101755.81
2023-01-04T02:00:39.236Z,101758.94
2023-01-04T02:03:17.991Z,101760.53
2023-01-04T02:05:52.731Z,101756.00
2023-01-04T02:08:25.201Z,101750.59
2023-01-04T02:10:55.403Z,101748.41
2023-01-04T02:13:50.256Z,101742.25
2023-01-04T02:16:33.455Z,101735.47
2023-01-04T02:19:20.231Z,101722.63
2023-01-04T02:22:08.797Z,101714.88
2023-01-04T02:24:58.218Z,101694.16
2023-01-04T02:27:47.143Z,101683.56
2023-01-04T02:30:55.110Z,101675.13
2023-01-04T02:33:40.654Z,101667.25
2023-01-04T02:36:18.929Z,101664.78
2023-01-04T02:39:05.124Z,101653.59
2023-01-04T02:41:37.701Z,101648.38
2023-01-04T02:44:29.252Z,101642.38
2023-01-04T02:47:07.173Z,101636.69
2023-01-04T02:49:49.889Z,101626.47
2023-01-04T02:52:20.967Z,101622.41
2023-01-04T02:54:53.568Z,101624.84
2023-01-04T02:57:46.808Z,101614.09
2023-01-04T03:00:35.070Z,101621.16
2023-01-04T03:03:34.566Z,101623.03
2023-01-04T03:06:18.385Z,101627.31
2023-01-04T03:08:57.334Z,101622.00
2023-01-04T03:11:46.489Z,101603.84
2023-01-04T03:14:31.320Z,101600.53
2023-01-04T03:17:06.725Z,101600.38
2023-01-04T03:19:53.392Z,101595.09
2023-01-04T03:22:40.959Z,101583.09
2023-01-04T03:25:24.693Z,101577.63
2023-01-04T03:28:09.289Z,101576.72
2023-01-04T03:31:06.020Z,101574.28
2023-01-04T03:33:48.952Z,101564.34
2023-01-04T03:36:34.433Z,101554.41
2023-01-04T03:39:26.043Z,101548.00
2023-01-04T03:42:16.141Z,101540.00
2023-01-04T03:45:10.223Z,101541.63
2023-01-04T03:47:59.661Z,101529.34
2023-01-04T03:50:34.635Z,101532.53
2023-01-04T03:53:08.834Z,101519.50
2023-01-04T03:55:41.733Z,101513.50
2023-01-04T03:58:12.105Z,101503.59
2023-01-04T04:00:42.068Z,101509.06
2023-01-04T04:03:12.327Z,101504.69
2023-01-04T04:05:56.892Z,101491.53
2023-01-04T04:08:30.861Z,101479.44
2023-01-04T04:11:24.711Z,101484.66
2023-01-04T04:13:55.018Z,101491.53
2023-01-04T04:16:25.035Z,101485.41
2023-01-04T04:18:55.421Z,101487.00
2023-01-04T04:21:25.648Z,101470.25
2023-01-04T04:24:00.202Z,101466.81
2023-01-04T04:26:30.195Z,101446.84
2023-01-04T04:29:00.496Z,101453.56
2023-01-04T04:31:30.888Z,101452.41
2023-01-04T04:34:01.271Z,101433.06
2023-01-04T04:36:31.218Z,101435.66
2023-01-04T04:39:04.117Z,101436.69
2023-01-04T04:41:41.660Z,101419.03
2023-01-04T04:44:14.615Z,101419.09
2023-01-04T04:46:45.031Z,101404.28
2023-01-04T04:49:16.380Z,101401.75
2023-01-04T04:51:47.602Z,101391.06
2023-01-04T04:54:22.640Z,101395.72
2023-01-04T04:56:52.988Z,101387.91
2023-01-04T04:59:23.421Z,101380.25
2023-01-04T05:01:53.677Z,101363.16
2023-01-04T05:04:24.159Z,101356.44
2023-01-04T05:06:54.296Z,101351.13
2023-01-04T05:09:27.295Z,101343.22
2023-01-04T05:12:09.951Z,101333.88
2023-01-04T05:14:40.557Z,101334.88
2023-01-04T05:17:10.971Z,101340.41
2023-01-04T05:19:41.287Z,101329.22
2023-01-04T05:22:11.313Z,101320.53
2023-01-04T05:24:44.206Z,101309.66
2023-01-04T05:27:14.113Z,101307.78
2023-01-04T05:29:56.921Z,101294.66
2023-01-04T05:32:26.909Z,101285.81
2023-01-04T05:34:57.325Z,101285.91
2023-01-04T05:37:27.268Z,101267.28
2023-01-04T05:40:00.168Z,101266.28
2023-01-04T05:42:30.437Z,101246.88
2023-01-04T05:45:01.402Z,101243.53
2023-01-04T05:47:32.022Z,101233.63
2023-01-04T05:50:02.583Z,101234.66
2023-01-04T05:52:32.772Z,101219.56
2023-01-04T05:55:06.244Z,101222.63
2023-01-04T05:57:36.309Z,101222.44
2023-01-04T06:00:08.209Z,101216.59
2023-01-04T06:02:38.796Z,101214.44
2023-01-04T06:05:10.643Z,101201.28
2023-01-04T06:07:41.477Z,101208.72
2023-01-04T06:10:15.932Z,101203.22
2023-01-04T06:12:45.883Z,101204.06
2023-01-04T06:15:16.676Z,101198.75
2023-01-04T06:17:48.909Z,101194.91
2023-01-04T06:20:19.180Z,101190.03
2023-01-04T06:22:49.189Z,101187.69
2023-01-04T06:25:22.157Z,101204.38
2023-01-04T06:27:52.198Z,101186.56
2023-01-04T06:30:25.162Z,101184.78
2023-01-04T06:32:55.157Z,101168.81
2023-01-04T06:35:25.450Z,101158.16
2023-01-04T06:37:55.447Z,101159.94
2023-01-04T06:40:28.670Z,101137.06
2023-01-04T06:42:58.675Z,101139.16
2023-01-04T06:45:29.097Z,101143.16
2023-01-04T06:47:59.930Z,101130.75
2023-01-04T06:50:32.442Z,101126.03
2023-01-04T06:53:02.919Z,101128.44
2023-01-04T06:55:35.824Z,101130.78
2023-01-04T06:58:05.784Z,101120.63
2023-01-04T07:00:35.993Z,101122.09
2023-01-04T07:03:14.389Z,101100.44
2023-01-04T07:05:46.530Z,101112.47
2023-01-04T07:08:17.228Z,101100.34
2023-01-04T07:10:50.155Z,101098.13
2023-01-04T07:13:20.464Z,101102.34
2023-01-04T07:15:50.776Z,101095.66
2023-01-04T07:18:21.191Z,101103.06
2023-01-04T07:20:52.384Z,101087.03
2023-01-04T07:23:53.266Z,101070.06
2023-01-04T07:26:26.713Z,101060.78
2023-01-04T07:29:15.186Z,101072.19
2023-01-04T07:31:49.823Z,101061.00
2023-01-04T07:34:22.115Z,101056.19
2023-01-04T07:36:53.492Z,101055.88
2023-01-04T07:39:24.470Z,101058.59
2023-01-04T07:41:57.432Z,101043.84
2023-01-04T07:44:28.324Z,101042.91
2023-01-04T07:46:59.587Z,101028.25
2023-01-04T07:49:29.555Z,101049.31
2023-01-04T07:52:00.004Z,101021.47
2023-01-04T07:54:30.060Z,101024.69
2023-01-04T07:57:02.936Z,101018.97
2023-01-04T07:59:32.913Z,101021.88
2023-01-04T08:02:03.351Z,101010.91
2023-01-04T08:04:35.439Z,101019.84
2023-01-04T08:07:06.403Z,101001.91
2023-01-04T08:09:36.365Z,100991.66
2023-01-04T08:12:09.295Z,100980.16
2023-01-04T08:14:39.356Z,100974.16
2023-01-04T08:17:09.831Z,100969.38
2023-01-04T08:19:39.703Z,100958.25
2023-01-04T08:22:10.021Z,100964.75
2023-01-04T08:24:39.918Z,100940.34
2023-01-04T08:27:13.094Z,100942.66
2023-01-04T08:29:43.162Z,100938.13
2023-01-04T08:32:13.368Z,100939.41
2023-01-04T08:34:43.464Z,100941.25
2023-01-04T08:37:13.850Z,63599.28
2023-01-04T08:39:48.664Z,101212.78
2023-01-04T08:42:30.676Z,63599.28
2023-01-04T08:47:34.382Z,63599.28
2023-01-04T08:57:47.553Z,63599.28
2023-01-04T09:07:54.051Z,63599.28
2023-01-04T09:12:57.170Z,63599.28
2023-01-04T09:15:27.235Z,63599.28
2023-01-04T09:18:31.432Z,63599.28
2023-01-04T09:20:47.583Z,63599.28
2023-01-04T09:23:17.931Z,63599.28
2023-01-04T09:25:47.849Z,63599.28
2023-01-04T09:28:20.696Z,63599.28
2023-01-04T09:30:50.619Z,63599.28
2023-01-04T09:33:20.872Z,63599.28
2023-01-04T09:36:50.511Z,63599.28
2023-01-04T09:40:00.207Z,63599.28
2023-01-04T09:42:37.658Z,63599.28
2023-01-04T09:50:40.241Z,83834.44
2023-01-04T09:53:15.488Z,63599.28
2023-01-04T09:55:49.642Z,63599.28
2023-01-04T09:58:36.119Z,88655.97
2023-01-04T10:01:45.026Z,63599.28
2023-01-04T10:05:18.842Z,63599.28
2023-01-04T10:08:16.396Z,63599.28
2023-01-04T10:11:22.308Z,63599.28
2023-01-04T10:14:40.103Z,63599.28
2023-01-04T10:21:33.868Z,63599.28
2023-01-04T10:24:37.499Z,63599.28
2023-01-04T10:30:48.222Z,63599.28
2023-01-04T10:33:29.412Z,63599.28
2023-01-04T10:36:00.053Z,63599.28
2023-01-04T10:38:36.473Z,63599.28
2023-01-04T10:44:11.096Z,63599.28
2023-01-04T10:47:48.370Z,63599.28
2023-01-04T10:51:25.039Z,63599.28
2023-01-04T10:54:08.744Z,63599.28
2023-01-04T11:02:21.076Z,63599.28
2023-01-04T11:05:48.798Z,63599.28
2023-01-04T11:09:25.488Z,63599.28
2023-01-04T11:12:56.874Z,63599.28
2023-01-04T11:16:25.704Z,63599.28
2023-01-04T11:19:54.307Z,63599.28
2023-01-04T11:23:26.093Z,63599.28
2023-01-04T11:26:58.210Z,63599.28
2023-01-04T11:33:08.915Z,63599.28
2023-01-04T11:36:37.132Z,63599.28
2023-01-04T11:40:21.382Z,63599.28
2023-01-04T11:43:59.480Z,63599.28
2023-01-04T11:50:56.650Z,63599.28
2023-01-04T11:54:30.579Z,63599.28
2023-01-04T11:58:10.804Z,63599.28
2023-01-04T12:01:35.780Z,63599.28
2023-01-04T12:10:31.147Z,63599.28
2023-01-04T12:16:32.096Z,63599.28
2023-01-04T12:27:18.971Z,63599.56
2023-01-04T12:29:58.445Z,63599.28
2023-01-04T12:32:49.850Z,63599.28
2023-01-04T12:36:06.441Z,63599.28
2023-01-04T12:39:22.617Z,63599.28
2023-01-04T12:42:26.896Z,63599.28
2023-01-04T12:45:25.076Z,63599.28
2023-01-04T12:48:09.113Z,63599.28
2023-01-04T12:51:34.244Z,63599.28
2023-01-04T12:54:06.100Z,63599.28
2023-01-04T12:57:06.418Z,63599.28
2023-01-04T12:59:41.232Z,63599.28
2023-01-04T13:02:19.730Z,63599.28
2023-01-04T13:04:49.952Z,63599.28
2023-01-04T13:07:24.229Z,63599.28
2023-01-04T13:09:57.654Z,63599.28
2023-01-04T13:12:54.693Z,63599.28
2023-01-04T13:15:41.751Z,63599.28
2023-01-04T13:18:35.091Z,63599.28
2023-01-04T13:21:07.320Z,63599.28
2023-01-04T13:23:37.864Z,63599.28
2023-01-04T13:26:37.900Z,63599.28
2023-01-04T13:29:17.357Z,63599.28
2023-01-04T13:31:56.086Z,63599.28
2023-01-04T13:34:30.269Z,63599.28
2023-01-04T13:40:49.289Z,63599.28
2023-01-04T13:45:18.499Z,63599.28
2023-01-04T13:48:42.524Z,63599.28
2023-01-04T13:52:46.290Z,63599.28
2023-01-04T13:56:19.944Z,63599.28
2023-01-04T13:59:48.545Z,63599.28
2023-01-04T14:02:40.617Z,63599.28
2023-01-04T14:05:41.369Z,63599.28
2023-01-04T14:08:35.788Z,63599.28
2023-01-04T14:11:46.702Z,63599.28
2023-01-04T14:14:53.705Z,63599.28
2023-01-04T14:18:27.682Z,63599.28
2023-01-04T14:21:23.318Z,63599.28
2023-01-04T14:26:45.871Z,63599.28
2023-01-04T14:57:15.199Z,100358.50
2023-01-04T14:59:46.554Z,100337.53
2023-01-04T15:02:17.047Z,100333.38
2023-01-04T15:04:47.445Z,100319.59
2023-01-04T15:07:35.658Z,100333.66
2023-01-04T15:10:18.374Z,100330.66
2023-01-04T15:12:50.849Z,100318.03
2023-01-04T15:15:21.485Z,100317.38
2023-01-04T15:17:51.700Z,100310.72
2023-01-04T15:20:22.030Z,100307.28
2023-01-04T15:22:51.986Z,100317.63
2023-01-04T15:25:22.298Z,100308.63
2023-01-04T15:27:58.167Z,100317.47
2023-01-04T15:30:28.483Z,100331.56
2023-01-04T15:32:58.647Z,100326.31
2023-01-04T15:35:28.972Z,100313.19
2023-01-04T15:37:58.896Z,100348.84
2023-01-04T15:40:29.272Z,100315.25
2023-01-04T15:42:59.188Z,100317.19
2023-01-04T15:45:34.484Z,100308.63
2023-01-04T15:48:06.067Z,100323.56
2023-01-04T15:50:37.930Z,100320.25
2023-01-04T15:53:08.078Z,100321.19
2023-01-04T15:55:40.093Z,100304.34
2023-01-04T15:58:12.685Z,100304.50
2023-01-04T16:00:42.947Z,100313.19
2023-01-04T16:03:12.921Z,100273.22
2023-01-04T16:05:43.156Z,100274.34
2023-01-04T16:08:13.104Z,100301.13
2023-01-04T16:10:43.425Z,100278.06
2023-01-04T16:13:15.858Z,100273.19
2023-01-04T16:15:46.170Z,100282.03
2023-01-04T16:18:16.127Z,100278.44
2023-01-04T16:20:46.658Z,100256.47
2023-01-04T16:23:16.920Z,100249.09
2023-01-04T16:25:47.520Z,100242.47
2023-01-04T16:28:20.187Z,100264.03
2023-01-04T16:30:57.761Z,100246.69
2023-01-04T16:33:27.789Z,100237.03
2023-01-04T16:36:06.225Z,100242.00
2023-01-04T16:38:39.284Z,100239.66
2023-01-04T16:41:11.217Z,100231.78
2023-01-04T16:43:48.740Z,100227.88
2023-01-04T16:46:25.921Z,100230.91
2023-01-04T16:48:57.751Z,100229.25
2023-01-04T16:51:30.398Z,100248.31
2023-01-04T16:54:00.509Z,100221.19
2023-01-04T16:56:31.718Z,100223.41
2023-01-04T16:59:04.545Z,100198.78
2023-01-04T17:01:38.413Z,100191.97
2023-01-04T17:04:14.039Z,100188.06
2023-01-04T17:06:46.256Z,100194.38
2023-01-04T17:09:19.869Z,100181.31
2023-01-04T17:15:23.866Z,100189.19
2023-01-04T17:17:46.318Z,100205.94
2023-01-04T17:20:16.721Z,100190.72
2023-01-04T17:22:50.012Z,100178.25
2023-01-04T17:25:20.924Z,100161.75
2023-01-04T17:27:51.498Z,100163.53
2023-01-04T17:30:24.381Z,100164.03
2023-01-04T17:32:54.914Z,100138.69
2023-01-04T17:35:24.846Z,100142.09
2023-01-04T17:37:55.146Z,100113.50
2023-01-04T17:40:25.499Z,100131.59
2023-01-04T17:42:55.834Z,100125.00
2023-01-04T17:45:28.823Z,100111.09
2023-01-04T17:47:59.370Z,100111.91
2023-01-04T17:50:29.338Z,100112.53
2023-01-04T17:53:00.885Z,100089.91
2023-01-04T17:55:30.932Z,100118.00
2023-01-04T17:58:03.289Z,100108.00
2023-01-04T18:03:09.085Z,100095.97
2023-01-04T18:05:51.554Z,100098.63
2023-01-04T18:08:22.523Z,100086.69
2023-01-04T18:11:08.593Z,100109.56
2023-01-04T18:16:34.023Z,100062.41
2023-01-04T18:19:13.452Z,100076.22
2023-01-04T18:21:43.714Z,100068.16
2023-01-04T18:24:35.485Z,100057.66
2023-01-04T18:27:21.458Z,100052.88
2023-01-04T18:29:52.540Z,100063.88
2023-01-04T18:32:27.732Z,100026.25
2023-01-04T18:34:58.128Z,100044.50
2023-01-04T18:37:28.202Z,100038.63
2023-01-04T18:39:58.729Z,100028.25
2023-01-04T18:42:28.749Z,100031.19
2023-01-04T18:44:59.236Z,100017.09
2023-01-04T18:47:32.698Z,100018.28
2023-01-04T18:50:02.973Z,100013.69
2023-01-04T18:52:33.091Z,100001.06
2023-01-04T18:55:03.973Z,100006.44
2023-01-04T18:57:36.680Z,99974.69
2023-01-04T19:00:08.032Z,99992.78
2023-01-04T19:02:40.999Z,99986.84
2023-01-04T19:05:13.483Z,99969.41
2023-01-04T19:07:43.418Z,99990.47
2023-01-04T19:10:13.673Z,99977.97
2023-01-04T19:12:43.861Z,99953.16
2023-01-04T19:15:14.679Z,99929.31
2023-01-04T19:17:47.290Z,99948.22
2023-01-04T19:20:17.586Z,99942.13
2023-01-04T19:22:47.503Z,99927.19
2023-01-04T19:25:20.780Z,99928.00
2023-01-04T19:27:53.210Z,99927.00
2023-01-04T19:30:23.720Z,99935.25
2023-01-04T19:32:56.445Z,99912.56
2023-01-04T19:35:27.350Z,99907.63
2023-01-04T19:37:57.569Z,99886.75
2023-01-04T19:40:28.196Z,99876.56
2023-01-04T19:42:58.725Z,99879.84
2023-01-04T19:45:29.326Z,99862.94
2023-01-04T19:48:02.181Z,99874.13
2023-01-04T19:50:32.801Z,99847.66
2023-01-04T19:53:03.791Z,99845.03
2023-01-04T19:55:34.543Z,99832.03
2023-01-04T19:58:04.794Z,99832.19
2023-01-04T20:00:35.379Z,99817.41
2023-01-04T20:03:08.563Z,99813.44
2023-01-04T20:05:39.457Z,99784.19
2023-01-04T20:08:09.899Z,99768.41
2023-01-04T20:10:40.635Z,99760.69
2023-01-04T20:13:10.973Z,99753.78
2023-01-04T20:15:41.984Z,99742.13
2023-01-04T20:18:14.807Z,99732.72
2023-01-04T20:20:45.871Z,99726.47
2023-01-04T20:23:17.086Z,99705.09
2023-01-04T20:25:49.324Z,99702.78
2023-01-04T20:28:20.699Z,99706.56
2023-01-04T20:30:51.424Z,99690.94
2023-01-04T20:33:24.281Z,99706.22
2023-01-04T20:35:54.924Z,99688.66
2023-01-04T20:38:25.370Z,99676.47
2023-01-04T20:40:55.907Z,99697.88
2023-01-04T20:43:38.412Z,99670.88
2023-01-04T20:46:14.785Z,99672.03
2023-01-04T20:48:48.607Z,99669.88
2023-01-04T20:51:21.622Z,99676.81
2023-01-04T20:53:52.283Z,99686.16
2023-01-04T20:56:24.192Z,99632.53
2023-01-04T20:58:55.318Z,99633.72
2023-01-04T21:01:26.120Z,99632.22
2023-01-04T21:03:59.087Z,99638.31
2023-01-04T21:06:30.786Z,99656.22
2023-01-04T21:09:02.327Z,99638.97
2023-01-04T21:11:32.601Z,99633.03
2023-01-04T21:14:06.316Z,99618.25
2023-01-04T21:16:40.900Z,99622.22
2023-01-04T21:19:13.782Z,99625.63
2023-01-04T21:21:44.092Z,99612.31
2023-01-04T21:24:16.132Z,99613.31
2023-01-04T21:26:47.235Z,99597.38
2023-01-04T21:29:17.471Z,99601.47
2023-01-04T21:31:50.773Z,99593.09
2023-01-04T21:34:25.142Z,99579.94
2023-01-04T21:36:59.103Z,99572.06
2023-01-04T21:39:29.089Z,99565.47
2023-01-04T21:41:59.460Z,99586.50
2023-01-04T21:44:31.462Z,99582.25
2023-01-04T21:47:04.929Z,99577.28
2023-01-04T21:49:37.537Z,99589.28
2023-01-04T21:52:07.802Z,99565.84
2023-01-04T21:54:37.823Z,99572.09
2023-01-04T21:57:08.738Z,99580.97
2023-01-04T21:59:39.041Z,99577.03
2023-01-04T22:02:24.010Z,99589.38
2023-01-04T22:04:57.016Z,99570.50
2023-01-04T22:07:26.995Z,99574.13
2023-01-04T22:09:57.902Z,99565.56
2023-01-04T22:12:28.077Z,99570.97
2023-01-04T22:15:01.244Z,99560.97
2023-01-04T22:17:31.762Z,99555.53
2023-01-04T22:20:07.466Z,99554.53
2023-01-04T22:22:51.904Z,99543.69
2023-01-04T22:25:22.281Z,99560.81
2023-01-04T22:27:52.510Z,99542.41
2023-01-04T22:30:23.192Z,99538.94
2023-01-04T22:32:53.230Z,99530.25
2023-01-04T22:35:32.158Z,99542.72
2023-01-04T22:38:02.119Z,99543.53
2023-01-04T22:40:32.386Z,99555.03
2023-01-04T22:43:02.550Z,99559.00
2023-01-04T22:45:33.096Z,99548.97
2023-01-04T22:48:07.323Z,99571.31
2023-01-04T22:50:41.333Z,99557.84
2023-01-04T22:53:11.290Z,99553.22
2023-01-04T22:56:17.502Z,99551.94
2023-01-04T22:58:33.517Z,99561.94
2023-01-04T23:01:07.067Z,99558.50
2023-01-04T23:03:39.281Z,99550.59
2023-01-04T23:06:14.794Z,99551.25
2023-01-04T23:08:45.017Z,99540.72
2023-01-04T23:11:18.849Z,99554.72
2023-01-04T23:13:49.150Z,99536.47
2023-01-04T23:16:20.091Z,99555.53
2023-01-04T23:18:50.697Z,99525.75
2023-01-04T23:21:23.830Z,99537.13
2023-01-04T23:23:54.137Z,99525.78
2023-01-04T23:26:26.314Z,99526.28
2023-01-04T23:28:56.897Z,99527.25
2023-01-04T23:31:32.421Z,99541.22
2023-01-04T23:34:04.583Z,99513.94
2023-01-04T23:36:39.685Z,99514.44
2023-01-04T23:39:12.509Z,99513.44
2023-01-04T23:41:49.352Z,99509.34
2023-01-04T23:46:55.191Z,99523.50
2023-01-04T23:49:27.130Z,99516.78
2023-01-04T23:52:00.763Z,99528.44
2023-01-04T23:54:31.750Z,99513.16
2023-01-04T23:57:03.779Z,99522.84
2023-01-04T23:59:33.948Z,99538.63
